Time;durP1;ratioP1;P1;durP2;ratioP2;P2;SDS_P1;SDS_P2;PMS_P1;PMS_P2;Temp;Humidity;BMP_temperature;BMP_pressure;BME280_temperature;BME280_humidity;BME280_pressure;Samples;Min_cycle;Max_cycle;Signal;HPM_P1;HPM_P2
2024/01/21 00:01:46;;;;;;;30.93;28.33;;;0.80;71.70;;;;;;5063449;28;20298;-87
2024/01/21 00:04:12;;;;;;;32.23;29.60;;;0.80;71.90;;;;;;5061347;28;20770;-86
2024/01/21 00:06:37;;;;;;;31.53;29.03;;;0.80;70.40;;;;;;5061824;28;20226;-87
2024/01/21 00:09:03;;;;;;;30.53;28.13;;;0.80;71.20;;;;;;5060427;28;20529;-85
2024/01/21 00:11:28;;;;;;;31.73;29.23;;;0.80;71.80;;;;;;5054516;28;20670;-86
2024/01/21 00:13:54;;;;;;;31.50;29.10;;;0.70;72.00;;;;;;5054552;28;20179;-86
2024/01/21 00:16:19;;;;;;;30.60;28.30;;;0.70;71.90;;;;;;5054595;28;20281;-86
2024/01/21 00:18:45;;;;;;;30.23;27.87;;;0.70;71.70;;;;;;5054299;28;20210;-86
2024/01/21 00:21:11;;;;;;;31.63;29.23;;;0.70;70.90;;;;;;5054531;28;20214;-86
2024/01/21 00:23:36;;;;;;;31.80;29.20;;;0.80;70.70;;;;;;5054554;28;20199;-86
2024/01/21 00:26:02;;;;;;;31.87;29.37;;;0.70;70.70;;;;;;5054619;28;20596;-86
2024/01/21 00:28:27;;;;;;;31.30;28.60;;;0.70;70.60;;;;;;5054492;28;20171;-86
2024/01/21 00:30:53;;;;;;;31.97;29.17;;;0.70;70.00;;;;;;5054067;28;20168;-86
2024/01/21 00:33:20;;;;;;;53.67;49.77;;;0.60;70.60;;;;;;5054121;28;20661;-86
2024/01/21 00:35:46;;;;;;;52.47;48.87;;;0.70;69.80;;;;;;5054165;28;20179;-86
2024/01/21 00:38:11;;;;;;;55.27;51.23;;;0.70;70.50;;;;;;5054409;28;20276;-86
2024/01/21 00:40:37;;;;;;;57.50;53.40;;;0.70;69.30;;;;;;5054205;28;20179;-86
2024/01/21 00:43:03;;;;;;;55.03;51.17;;;0.70;69.80;;;;;;5055785;28;20183;-86
2024/01/21 00:45:28;;;;;;;55.67;51.30;;;0.70;69.30;;;;;;5054198;28;20575;-86
2024/01/21 00:47:54;;;;;;;54.07;50.17;;;0.60;70.10;;;;;;5055572;28;20167;-86
2024/01/21 00:50:20;;;;;;;31.93;29.40;;;0.70;69.10;;;;;;5053989;28;20176;-86
2024/01/21 00:52:46;;;;;;;32.97;30.37;;;0.60;69.30;;;;;;5053514;28;20179;-86
2024/01/21 00:55:11;;;;;;;32.20;29.80;;;0.60;69.30;;;;;;5053869;28;20173;-86
2024/01/21 00:57:36;;;;;;;31.50;29.10;;;0.60;68.50;;;;;;5055085;28;20285;-86
2024/01/21 01:00:04;;;;;;;31.00;28.70;;;0.60;69.00;;;;;;5055361;28;20181;-86
2024/01/21 01:02:30;;;;;;;31.13;28.73;;;0.70;68.40;;;;;;5053782;28;20178;-86
2024/01/21 01:04:56;;;;;;;30.27;27.97;;;0.60;68.60;;;;;;5053285;28;20213;-86
2024/01/21 01:07:21;;;;;;;29.87;27.70;;;0.60;69.00;;;;;;5053218;28;20231;-87
2024/01/21 01:09:47;;;;;;;29.73;27.43;;;0.60;69.10;;;;;;5054552;28;20246;-86
2024/01/21 01:12:12;;;;;;;29.17;26.97;;;0.70;68.20;;;;;;5053461;28;20176;-86
2024/01/21 01:14:41;;;;;;;30.10;27.80;;;0.70;69.00;;;;;;5054645;28;20232;-86
2024/01/21 01:17:07;;;;;;;30.80;28.17;;;0.70;69.70;;;;;;5052796;28;20208;-86
2024/01/21 01:19:32;;;;;;;28.33;26.30;;;0.80;68.80;;;;;;5053265;28;20180;-87
2024/01/21 01:21:58;;;;;;;30.17;27.80;;;0.60;69.70;;;;;;5053313;28;20333;-88
2024/01/21 01:24:23;;;;;;;27.63;25.50;;;0.60;69.40;;;;;;5053815;28;20210;-88
2024/01/21 01:26:49;;;;;;;27.53;25.53;;;0.70;68.60;;;;;;5052856;28;20276;-87
2024/01/21 01:29:14;;;;;;;27.47;25.47;;;0.60;69.20;;;;;;5052922;28;20639;-86
2024/01/21 01:31:40;;;;;;;27.93;25.83;;;0.60;68.80;;;;;;5054104;28;20203;-87
2024/01/21 01:34:06;;;;;;;28.90;26.60;;;0.70;68.50;;;;;;5054535;28;20176;-88
2024/01/21 01:36:31;;;;;;;28.73;26.33;;;0.60;69.60;;;;;;5053054;28;20214;-87
2024/01/21 01:38:57;;;;;;;28.80;26.37;;;0.60;69.30;;;;;;5052974;28;20175;-86
2024/01/21 01:41:22;;;;;;;26.37;24.47;;;0.60;69.20;;;;;;5054420;28;20643;-86
2024/01/21 01:43:48;;;;;;;28.53;26.43;;;0.60;68.60;;;;;;5053286;28;20206;-86
2024/01/21 01:46:14;;;;;;;30.20;27.83;;;0.60;68.40;;;;;;5053435;28;20195;-86
2024/01/21 01:48:40;;;;;;;29.20;27.03;;;0.70;68.30;;;;;;5054581;28;20648;-86
2024/01/21 01:51:07;;;;;;;28.70;26.53;;;0.60;68.60;;;;;;5052987;28;20172;-86
2024/01/21 01:53:34;;;;;;;28.93;26.73;;;0.70;68.20;;;;;;5053024;28;20542;-86
2024/01/21 01:56:00;;;;;;;28.90;26.17;;;0.70;67.80;;;;;;5052743;28;20698;-86
2024/01/21 01:58:29;;;;;;;27.90;25.70;;;0.80;67.50;;;;;;5053888;28;20168;-86
2024/01/21 02:00:56;;;;;;;27.07;25.03;;;0.70;67.80;;;;;;5052499;28;20209;-86
2024/01/21 02:03:25;;;;;;;28.97;26.80;;;0.70;67.90;;;;;;5052710;28;20272;-86
2024/01/21 02:05:51;;;;;;;27.53;25.43;;;0.60;68.50;;;;;;5052942;28;20199;-86
2024/01/21 02:08:17;;;;;;;26.50;24.60;;;0.60;67.90;;;;;;5054051;28;20174;-86
2024/01/21 02:10:42;;;;;;;26.10;24.20;;;0.60;67.40;;;;;;5053785;28;20254;-86
2024/01/21 02:13:08;;;;;;;25.30;23.37;;;0.70;67.10;;;;;;5052551;28;20203;-86
2024/01/21 02:15:33;;;;;;;24.77;22.97;;;0.60;67.30;;;;;;5052440;28;20674;-86
2024/01/21 02:17:59;;;;;;;26.23;24.07;;;0.70;67.00;;;;;;5052447;28;20187;-86
2024/01/21 02:20:25;;;;;;;27.47;25.37;;;0.60;67.10;;;;;;5053759;28;20184;-86
2024/01/21 02:22:50;;;;;;;26.77;24.77;;;0.60;67.40;;;;;;5052536;28;20183;-86
2024/01/21 02:25:16;;;;;;;27.70;25.57;;;0.50;67.00;;;;;;5053589;28;20199;-86
2024/01/21 02:27:42;;;;;;;26.63;24.63;;;0.50;66.70;;;;;;5053183;28;20567;-86
2024/01/21 02:30:08;;;;;;;26.70;24.70;;;0.50;66.90;;;;;;5060209;28;20171;-87
2024/01/21 02:32:33;;;;;;;26.53;24.50;;;0.50;66.80;;;;;;5055061;28;20648;-87
2024/01/21 02:34:59;;;;;;;24.97;23.17;;;0.50;66.60;;;;;;5054936;28;20176;-86
2024/01/21 02:37:24;;;;;;;26.00;24.07;;;0.50;66.00;;;;;;5053691;28;20212;-87
2024/01/21 02:39:50;;;;;;;26.37;24.37;;;0.40;66.90;;;;;;5053425;28;20609;-87
2024/01/21 02:42:16;;;;;;;26.33;24.33;;;0.40;67.80;;;;;;5053509;28;20703;-86
2024/01/21 02:44:41;;;;;;;46.13;42.93;;;0.40;67.40;;;;;;5053465;28;20227;-87
2024/01/21 02:47:07;;;;;;;46.97;43.67;;;0.40;67.00;;;;;;5053327;28;20221;-87
2024/01/21 02:49:32;;;;;;;47.53;44.23;;;0.40;68.00;;;;;;5053096;28;20179;-87
2024/01/21 02:51:58;;;;;;;48.20;44.63;;;0.40;67.70;;;;;;5054499;28;20270;-86
2024/01/21 02:54:25;;;;;;;46.67;43.43;;;0.50;66.60;;;;;;5053196;28;20648;-86
2024/01/21 02:56:51;;;;;;;46.23;42.97;;;0.50;66.50;;;;;;5053194;28;20251;-86
2024/01/21 02:59:16;;;;;;;47.27;43.90;;;0.50;67.30;;;;;;5054235;28;20174;-86
2024/01/21 03:01:42;;;;;;;26.93;24.93;;;0.40;67.40;;;;;;5054055;28;20258;-86
2024/01/21 03:04:12;;;;;;;26.50;24.33;;;0.30;68.10;;;;;;5053073;28;20269;-87
2024/01/21 03:06:38;;;;;;;26.57;24.57;;;0.30;68.70;;;;;;5053831;28;20257;-87
2024/01/21 03:09:04;;;;;;;27.03;24.93;;;0.30;68.90;;;;;;5053762;28;20172;-87
2024/01/21 03:11:32;;;;;;;26.90;24.77;;;0.30;68.40;;;;;;5052304;28;20177;-87
2024/01/21 03:13:57;;;;;;;27.00;24.90;;;0.20;68.50;;;;;;5053818;28;20171;-86
2024/01/21 03:16:23;;;;;;;26.63;24.70;;;0.20;68.20;;;;;;5052798;28;20734;-86
2024/01/21 03:18:48;;;;;;;26.63;24.43;;;0.20;68.60;;;;;;5052272;28;20717;-86
2024/01/21 03:21:14;;;;;;;26.73;24.63;;;0.20;68.60;;;;;;5054173;28;20176;-86
2024/01/21 03:23:39;;;;;;;26.37;24.27;;;0.10;68.40;;;;;;5052382;28;20554;-86
2024/01/21 03:26:05;;;;;;;26.70;24.43;;;0.10;68.10;;;;;;5052838;28;20573;-86
2024/01/21 03:28:30;;;;;;;26.57;24.43;;;0.10;68.30;;;;;;5052304;28;20183;-86
2024/01/21 03:30:56;;;;;;;26.50;24.40;;;0.10;68.50;;;;;;5053743;28;20180;-86
2024/01/21 03:33:21;;;;;;;26.37;24.37;;;0.10;68.60;;;;;;5052398;28;20190;-86
2024/01/21 03:35:47;;;;;;;27.47;25.37;;;0.10;68.80;;;;;;5052412;28;20179;-87
2024/01/21 03:38:13;;;;;;;26.70;24.70;;;0.00;69.00;;;;;;5052452;28;20179;-86
2024/01/21 03:40:39;;;;;;;26.13;24.23;;;0.00;69.20;;;;;;5055525;28;20194;-86
2024/01/21 03:43:04;;;;;;;26.17;24.17;;;0.00;69.00;;;;;;5057263;28;20176;-86
2024/01/21 03:45:30;;;;;;;26.67;24.57;;;0.00;68.90;;;;;;5057637;28;20279;-86
2024/01/21 03:47:55;;;;;;;27.03;24.83;;;0.00;69.00;;;;;;5057584;28;20660;-86
2024/01/21 03:50:21;;;;;;;27.13;25.03;;;0.00;69.30;;;;;;5057110;28;20186;-86
2024/01/21 03:52:47;;;;;;;27.60;25.37;;;0.00;69.60;;;;;;5055817;28;20183;-86
2024/01/21 03:55:17;;;;;;;28.47;26.37;;;0.00;68.80;;;;;;5055845;28;20278;-86
2024/01/21 03:57:43;;;;;;;27.90;25.70;;;0.00;69.20;;;;;;5057327;28;20651;-86
2024/01/21 04:00:10;;;;;;;28.53;26.30;;;0.00;69.40;;;;;;5056653;28;20273;-86
2024/01/21 04:02:36;;;;;;;28.40;26.20;;;0.00;69.30;;;;;;5057096;28;20599;-86
2024/01/21 04:05:03;;;;;;;27.90;25.73;;;0.00;69.00;;;;;;5056095;28;20204;-86
2024/01/21 04:07:31;;;;;;;27.53;25.43;;;0.10;68.10;;;;;;5055349;28;20204;-86
2024/01/21 04:09:57;;;;;;;26.97;24.87;;;0.10;68.60;;;;;;5055713;28;20198;-86
2024/01/21 04:12:23;;;;;;;27.17;25.07;;;0.00;68.90;;;;;;5056262;28;20634;-86
2024/01/21 04:14:48;;;;;;;28.57;26.27;;;0.00;68.80;;;;;;5055241;28;20270;-86
2024/01/21 04:17:14;;;;;;;27.77;25.57;;;0.00;68.80;;;;;;5055011;28;20195;-86
2024/01/21 04:19:39;;;;;;;28.23;25.97;;;0.00;68.40;;;;;;5055271;28;20221;-86
2024/01/21 04:22:05;;;;;;;28.97;26.47;;;0.00;68.10;;;;;;5055081;28;20706;-86
2024/01/21 04:24:30;;;;;;;28.53;26.23;;;0.00;68.30;;;;;;5055786;28;20728;-86
2024/01/21 04:26:56;;;;;;;27.97;25.73;;;0.00;67.60;;;;;;5056022;28;20196;-86
2024/01/21 04:29:22;;;;;;;29.80;27.40;;;0.00;67.50;;;;;;5054779;28;20227;-86
2024/01/21 04:31:47;;;;;;;28.77;26.43;;;0.00;68.10;;;;;;5056277;28;20169;-88
2024/01/21 04:34:13;;;;;;;27.57;25.33;;;0.00;67.90;;;;;;5055157;28;20228;-86
2024/01/21 04:36:38;;;;;;;28.13;25.93;;;0.00;67.90;;;;;;5055582;28;20599;-86
2024/01/21 04:39:06;;;;;;;27.20;25.10;;;0.00;68.00;;;;;;5054404;28;20642;-86
2024/01/21 04:41:32;;;;;;;28.73;26.30;;;0.00;67.80;;;;;;5054302;28;20529;-86
2024/01/21 04:43:57;;;;;;;29.17;26.70;;;0.00;67.70;;;;;;5054627;28;20206;-86
2024/01/21 04:46:23;;;;;;;28.40;26.10;;;0.00;67.20;;;;;;5055259;28;20203;-86
2024/01/21 04:48:49;;;;;;;26.83;24.67;;;0.00;67.30;;;;;;5055627;28;20257;-86
2024/01/21 04:51:14;;;;;;;28.07;25.80;;;0.10;67.20;;;;;;5054755;28;20709;-87
2024/01/21 04:53:40;;;;;;;29.83;27.33;;;0.20;66.20;;;;;;5054123;28;20266;-86
2024/01/21 04:56:06;;;;;;;47.07;43.83;;;0.20;65.20;;;;;;5053910;28;20197;-87
2024/01/21 04:58:33;;;;;;;48.93;45.43;;;0.30;65.20;;;;;;5055594;28;20184;-86
2024/01/21 05:00:58;;;;;;;47.73;44.23;;;0.20;66.00;;;;;;5054047;28;20189;-86
2024/01/21 05:03:24;;;;;;;45.63;42.33;;;0.20;66.20;;;;;;5053715;28;20598;-86
2024/01/21 05:05:50;;;;;;;46.23;42.63;;;0.20;66.90;;;;;;5055261;28;20201;-86
2024/01/21 05:08:15;;;;;;;47.90;44.33;;;0.30;66.10;;;;;;5053844;28;20552;-86
2024/01/21 05:10:41;;;;;;;46.70;43.30;;;0.30;66.20;;;;;;5054466;28;20172;-87
2024/01/21 05:13:06;;;;;;;44.37;40.87;;;0.30;65.80;;;;;;5055178;28;20651;-86
2024/01/21 05:15:32;;;;;;;45.63;42.23;;;0.40;63.90;;;;;;5055368;28;20618;-86
2024/01/21 05:17:57;;;;;;;47.10;43.67;;;0.30;65.50;;;;;;5055162;28;20180;-87
2024/01/21 05:20:23;;;;;;;45.10;41.63;;;0.30;65.50;;;;;;5056568;28;20671;-86
2024/01/21 05:22:50;;;;;;;46.80;43.40;;;0.40;64.50;;;;;;5055308;28;20191;-87
2024/01/21 05:25:17;;;;;;;50.73;47.03;;;0.30;65.90;;;;;;5055687;28;20210;-86
2024/01/21 05:27:43;;;;;;;41.13;37.83;;;0.40;64.50;;;;;;5056288;28;20268;-87
2024/01/21 05:30:08;;;;;;;28.37;26.07;;;0.40;65.60;;;;;;5055449;28;20219;-86
2024/01/21 05:32:34;;;;;;;28.70;26.40;;;0.50;64.00;;;;;;5055454;28;20653;-87
2024/01/21 05:35:00;;;;;;;27.60;25.50;;;0.50;64.60;;;;;;5055572;28;20175;-87
2024/01/21 05:37:25;;;;;;;27.80;25.63;;;0.60;63.90;;;;;;5056099;28;20239;-87
2024/01/21 05:39:51;;;;;;;27.83;25.53;;;0.60;63.60;;;;;;5055915;28;20179;-86
2024/01/21 05:42:16;;;;;;;27.43;25.33;;;0.60;64.40;;;;;;5055638;28;20527;-87
2024/01/21 05:44:42;;;;;;;26.70;24.80;;;0.60;64.20;;;;;;5055437;28;20214;-86
2024/01/21 05:47:07;;;;;;;28.43;26.13;;;0.70;63.20;;;;;;5056750;28;20753;-87
2024/01/21 05:49:33;;;;;;;28.20;26.00;;;0.70;62.90;;;;;;5057295;28;20189;-87
2024/01/21 05:51:59;;;;;;;26.83;24.83;;;0.70;63.30;;;;;;5057551;28;20633;-86
2024/01/21 05:54:27;;;;;;;26.67;24.67;;;0.90;61.90;;;;;;5056233;28;20180;-86
2024/01/21 05:56:53;;;;;;;26.23;24.43;;;0.90;61.80;;;;;;5055826;28;20671;-86
2024/01/21 05:59:20;;;;;;;26.77;24.87;;;0.80;62.00;;;;;;5057190;28;20273;-87
2024/01/21 06:01:49;;;;;;;27.80;25.67;;;1.00;60.90;;;;;;5055783;28;20227;-86
2024/01/21 06:04:16;;;;;;;27.10;25.17;;;0.90;61.70;;;;;;5057301;28;20286;-86
2024/01/21 06:06:41;;;;;;;25.83;24.03;;;1.00;60.50;;;;;;5055470;28;20218;-86
2024/01/21 06:09:07;;;;;;;26.60;24.60;;;1.00;60.40;;;;;;5055598;28;20263;-87
2024/01/21 06:11:33;;;;;;;27.23;25.23;;;1.00;60.20;;;;;;5055769;28;20187;-87
2024/01/21 06:13:58;;;;;;;25.27;23.30;;;1.10;60.10;;;;;;5057929;28;20180;-86
2024/01/21 06:16:24;;;;;;;26.80;24.90;;;1.20;58.70;;;;;;5055556;28;20196;-87
2024/01/21 06:18:49;;;;;;;25.57;23.77;;;1.10;59.70;;;;;;5056019;28;20184;-87
2024/01/21 06:21:16;;;;;;;26.67;24.67;;;1.20;59.10;;;;;;5056047;28;20190;-86
2024/01/21 06:23:42;;;;;;;24.80;23.17;;;1.20;59.20;;;;;;5056174;28;20643;-87
2024/01/21 06:26:19;;;;;;;25.57;23.77;;;1.20;58.80;;;;;;5058062;28;20195;-87
2024/01/21 06:28:46;;;;;;;25.27;23.50;;;1.20;58.70;;;;;;5055963;28;20182;-87
2024/01/21 06:31:11;;;;;;;25.90;24.10;;;1.20;58.50;;;;;;5057440;28;20187;-86
2024/01/21 06:33:38;;;;;;;26.20;24.17;;;1.30;56.90;;;;;;5055795;28;20176;-86
2024/01/21 06:36:04;;;;;;;24.90;23.10;;;1.20;59.20;;;;;;5055698;28;20344;-87
2024/01/21 06:38:29;;;;;;;25.57;23.77;;;1.30;58.10;;;;;;5055679;28;20234;-86
2024/01/21 06:40:55;;;;;;;26.40;24.60;;;1.30;56.90;;;;;;5055674;28;20176;-86
2024/01/21 06:43:20;;;;;;;25.87;23.97;;;1.30;58.40;;;;;;5057750;28;20171;-87
2024/01/21 06:45:45;;;;;;;25.97;23.87;;;1.30;57.80;;;;;;5055946;28;20545;-87
2024/01/21 06:48:11;;;;;;;26.67;24.77;;;1.30;57.80;;;;;;5056224;28;20179;-86
2024/01/21 06:50:37;;;;;;;26.17;24.33;;;1.20;57.90;;;;;;5056039;28;20176;-87
2024/01/21 06:53:03;;;;;;;25.67;23.97;;;1.30;57.60;;;;;;5056371;28;20724;-86
2024/01/21 06:55:28;;;;;;;24.57;22.87;;;1.20;58.40;;;;;;5056605;28;20180;-87
2024/01/21 06:57:54;;;;;;;25.27;23.37;;;1.30;57.40;;;;;;5057596;28;20180;-87
2024/01/21 07:00:19;;;;;;;25.17;23.37;;;1.20;57.40;;;;;;5056682;28;20179;-87
2024/01/21 07:02:45;;;;;;;24.87;23.20;;;1.20;57.90;;;;;;5058031;28;20168;-86
2024/01/21 07:05:11;;;;;;;25.50;23.70;;;1.20;59.10;;;;;;5056219;28;20209;-87
2024/01/21 07:07:36;;;;;;;26.03;24.23;;;1.30;57.10;;;;;;5056749;28;20208;-87
2024/01/21 07:10:02;;;;;;;27.03;25.10;;;1.30;56.80;;;;;;5055899;28;20180;-87
2024/01/21 07:12:27;;;;;;;26.50;24.00;;;1.30;58.40;;;;;;5055824;28;20233;-86
2024/01/21 07:14:53;;;;;;;24.77;23.00;;;1.30;57.30;;;;;;5058084;28;20215;-87
2024/01/21 07:17:18;;;;;;;25.57;23.67;;;1.30;57.60;;;;;;5059397;28;20301;-87
2024/01/21 07:19:44;;;;;;;24.47;22.73;;;1.30;56.90;;;;;;5061416;28;20258;-87
2024/01/21 07:22:10;;;;;;;24.87;23.17;;;1.30;58.30;;;;;;5060976;28;20636;-87
2024/01/21 07:24:35;;;;;;;25.30;23.37;;;1.30;57.60;;;;;;5060161;28;20682;-87
2024/01/21 07:27:02;;;;;;;26.20;24.40;;;1.30;57.80;;;;;;5060192;28;20196;-87
2024/01/21 07:29:28;;;;;;;23.93;22.20;;;1.30;57.20;;;;;;5060062;28;20633;-87
2024/01/21 07:31:53;;;;;;;22.80;21.30;;;1.30;57.50;;;;;;5060879;28;20176;-87
2024/01/21 07:34:19;;;;;;;23.70;22.10;;;1.30;56.90;;;;;;5061859;28;20177;-87
2024/01/21 07:36:45;;;;;;;24.77;23.07;;;1.30;58.20;;;;;;5060213;28;20284;-87
2024/01/21 07:39:11;;;;;;;24.60;22.90;;;1.30;57.00;;;;;;5061544;28;20172;-86
2024/01/21 07:41:37;;;;;;;25.43;23.70;;;1.30;57.40;;;;;;5061904;28;20165;-87
2024/01/21 07:44:02;;;;;;;26.03;24.03;;;1.30;57.00;;;;;;5059512;28;20206;-87
2024/01/21 07:46:28;;;;;;;26.37;24.27;;;1.30;58.30;;;;;;5060100;28;20217;-87
2024/01/21 07:48:53;;;;;;;25.17;23.37;;;1.30;57.90;;;;;;5060099;28;20271;-87
2024/01/21 07:51:19;;;;;;;25.93;23.93;;;1.40;56.40;;;;;;5059947;28;20210;-87
2024/01/21 07:53:45;;;;;;;25.87;23.97;;;1.40;57.70;;;;;;5060343;28;20636;-87
2024/01/21 07:56:12;;;;;;;25.97;24.07;;;1.40;55.90;;;;;;5059666;28;20249;-86
2024/01/21 07:58:38;;;;;;;25.93;23.83;;;1.40;56.80;;;;;;5059964;28;20183;-87
2024/01/21 08:01:09;;;;;;;25.53;23.67;;;1.40;56.50;;;;;;5059832;28;20241;-87
2024/01/21 08:03:35;;;;;;;25.77;23.90;;;1.40;56.20;;;;;;5061385;28;20176;-87
2024/01/21 08:06:00;;;;;;;26.83;24.70;;;1.50;56.00;;;;;;5057579;28;20226;-87
2024/01/21 08:08:26;;;;;;;30.03;27.50;;;1.40;56.60;;;;;;5057454;28;20179;-87
2024/01/21 08:10:52;;;;;;;39.07;36.47;;;1.40;56.50;;;;;;5058797;28;20182;-88
2024/01/21 08:13:17;;;;;;;39.13;36.43;;;1.40;57.90;;;;;;5058094;28;20555;-88
2024/01/21 08:15:43;;;;;;;39.40;36.90;;;1.30;57.30;;;;;;5059317;28;20624;-87
2024/01/21 08:18:08;;;;;;;37.60;35.10;;;1.40;56.80;;;;;;5059239;28;20187;-87
2024/01/21 08:20:34;;;;;;;36.23;33.83;;;1.30;57.80;;;;;;5059711;28;20189;-87
2024/01/21 08:23:01;;;;;;;35.60;33.23;;;1.40;56.90;;;;;;5058895;28;20187;-87
2024/01/21 08:25:27;;;;;;;37.87;35.37;;;1.40;56.50;;;;;;5058174;28;20274;-86
2024/01/21 08:27:53;;;;;;;39.13;36.53;;;1.40;57.50;;;;;;5060166;28;20219;-87
2024/01/21 08:30:19;;;;;;;38.03;35.53;;;1.50;57.10;;;;;;5060573;28;20170;-87
2024/01/21 08:32:44;;;;;;;37.13;34.63;;;1.50;57.10;;;;;;5059844;28;20169;-87
2024/01/21 08:35:10;;;;;;;;;;;1.50;56.60;;;;;;5058709;28;20199;-87
2024/01/21 08:37:35;;;;;;;;;;;1.60;55.60;;;;;;5060479;28;20538;-87
2024/01/21 08:40:01;;;;;;;;;;;1.70;55.30;;;;;;5059393;28;19956;-87
2024/01/21 08:42:27;;;;;;;;;;;1.80;54.70;;;;;;5059760;28;19935;-87
2024/01/21 08:44:52;;;;;;;;;;;1.70;54.90;;;;;;5058209;28;19908;-87
2024/01/21 08:47:18;;;;;;;;;;;1.70;55.30;;;;;;5057949;28;20336;-88
2024/01/21 08:49:43;;;;;;;;;;;1.80;54.70;;;;;;5058739;28;19954;-87
2024/01/21 08:52:09;;;;;;;;;;;1.80;55.60;;;;;;5058939;28;19904;-87
2024/01/21 08:54:34;;;;;;;;;;;1.80;55.20;;;;;;5062898;28;19912;-87
2024/01/21 08:57:00;;;;;;;;;;;1.70;56.00;;;;;;5065779;28;19940;-87
2024/01/21 08:59:25;;;;;;;;;;;1.70;56.30;;;;;;5059189;28;19905;-87
2024/01/21 09:01:51;;;;;;;;;;;1.80;56.30;;;;;;5057887;28;19912;-87
2024/01/21 09:04:16;;;;;;;;;;;1.80;56.10;;;;;;5057474;28;19916;-87
2024/01/21 09:06:41;;;;;;;;;;;1.80;56.50;;;;;;5058055;28;19980;-87
2024/01/21 09:09:11;;;;;;;;;;;1.80;55.90;;;;;;5057698;28;19905;-87
2024/01/21 09:11:37;;;;;;;;;;;1.90;54.80;;;;;;5056264;28;19911;-86
2024/01/21 09:14:03;;;;;;;;;;;1.90;55.00;;;;;;5055494;28;19954;-87
2024/01/21 09:16:29;;;;;;;;;;;1.90;54.20;;;;;;5055606;28;19909;-87
2024/01/21 09:18:55;;;;;;;;;;;1.80;55.70;;;;;;5056563;28;19987;-87
2024/01/21 09:21:20;;;;;;;;;;;1.90;55.90;;;;;;5055047;28;19948;-87
2024/01/21 09:23:46;;;;;;;;;;;1.80;56.70;;;;;;5055064;28;19909;-87
2024/01/21 09:26:11;;;;;;;;;;;1.80;56.40;;;;;;5054817;28;20357;-87
2024/01/21 09:28:37;;;;;;;;;;;1.80;57.20;;;;;;5054709;28;19905;-87
2024/01/21 09:31:02;;;;;;;;;;;1.80;57.40;;;;;;5056081;28;19905;-87
2024/01/21 09:33:28;;;;;;;;;;;1.90;56.20;;;;;;5056531;28;20368;-86
2024/01/21 09:35:53;;;;;;;;;;;2.10;55.10;;;;;;5054497;28;19919;-87
2024/01/21 09:38:21;;;;;;;;;;;2.00;56.10;;;;;;5054665;28;19904;-87
2024/01/21 09:40:57;;;;;;;;;;;2.20;54.90;;;;;;5054348;28;20002;-87
2024/01/21 09:43:24;;;;;;;;;;;2.50;52.90;;;;;;5054551;28;19958;-87
2024/01/21 09:45:50;;;;;;;;;;;2.40;55.20;;;;;;5053824;28;19909;-87
2024/01/21 09:48:16;;;;;;;;;;;2.50;54.20;;;;;;5055667;28;19908;-87
2024/01/21 09:50:42;;;;;;;;;;;2.40;55.10;;;;;;5054333;28;19954;-87
2024/01/21 09:53:07;;;;;;;;;;;2.60;52.60;;;;;;5055913;28;19912;-87
2024/01/21 09:55:33;;;;;;;;;;;2.80;52.70;;;;;;5054510;28;19905;-87
2024/01/21 09:58:01;;;;;;;;;;;2.80;52.20;;;;;;5054694;28;20019;-87
2024/01/21 10:00:27;;;;;;;;;;;2.90;51.30;;;;;;5055143;28;19912;-87
2024/01/21 10:02:53;;;;;;;;;;;2.90;51.90;;;;;;5054032;28;19934;-87
2024/01/21 10:05:19;;;;;;;;;;;2.90;53.20;;;;;;5053785;28;20011;-87
2024/01/21 10:07:45;;;;;;;;;;;3.00;52.30;;;;;;5053796;28;19905;-86
2024/01/21 10:10:12;;;;;;;;;;;3.00;52.80;;;;;;5054404;28;19912;-87
2024/01/21 10:12:37;;;;;;;;;;;3.00;53.10;;;;;;5053911;28;19912;-87
2024/01/21 10:15:02;;;;;;;;;;;3.10;52.40;;;;;;5053797;28;19905;-87
2024/01/21 10:17:28;;;;;;;;;;;3.10;53.20;;;;;;5054154;28;19909;-87
2024/01/21 10:19:54;;;;;;;;;;;3.10;53.30;;;;;;5054439;28;19904;-87
2024/01/21 10:22:23;;;;;;;;;;;3.10;54.00;;;;;;5055636;28;19928;-87
2024/01/21 10:24:49;;;;;;;;;;;3.20;53.20;;;;;;5054458;28;19915;-87
2024/01/21 10:27:18;;;;;;;;;;;3.20;51.20;;;;;;5055304;28;19959;-87
2024/01/21 10:29:44;;;;;;;;;;;3.30;52.20;;;;;;5054773;28;19905;-87
2024/01/21 10:32:10;;;;;;;;;;;3.20;54.10;;;;;;5054421;28;19905;-87
2024/01/21 10:34:40;;;;;;;;;;;3.20;53.60;;;;;;5052739;28;19904;-87
2024/01/21 10:37:06;;;;;;;;;;;3.30;52.40;;;;;;5052576;28;19919;-87
2024/01/21 10:39:34;;;;;;;;;;;3.30;52.90;;;;;;5053734;28;19913;-87
2024/01/21 10:42:00;;;;;;;;;;;3.30;53.50;;;;;;5052593;28;19912;-87
2024/01/21 10:44:27;;;;;;;;;;;3.30;52.50;;;;;;5053325;28;20269;-87
2024/01/21 10:46:52;;;;;;;;;;;3.30;52.60;;;;;;5054355;28;19905;-87
2024/01/21 10:49:18;;;;;;;;;;;3.30;53.10;;;;;;5053821;28;19933;-87
2024/01/21 10:51:45;;;;;;;;;;;3.40;51.10;;;;;;5056686;28;19905;-87
2024/01/21 10:54:11;;;;;;;;;;;3.30;53.90;;;;;;5056752;28;19912;-87
2024/01/21 10:56:37;;;;;;;;;;;3.30;52.40;;;;;;5056640;28;19904;-87
2024/01/21 10:59:03;;;;;;;;;;;3.30;52.80;;;;;;5056872;28;19911;-87
2024/01/21 11:01:28;;;;;;;;;;;3.30;53.30;;;;;;5056728;28;19908;-87
2024/01/21 11:04:07;;;;;;;;;;;3.20;55.00;;;;;;5058497;28;19912;-87
2024/01/21 11:06:33;;;;;;;;;;;3.30;54.50;;;;;;5057070;28;19905;-89
2024/01/21 11:09:00;;;;;;;;;;;3.30;55.00;;;;;;5056267;28;19909;-89
2024/01/21 11:11:25;;;;;;;;;;;3.40;53.20;;;;;;5055941;28;19911;-89
2024/01/21 11:13:51;;;;;;;;;;;3.40;54.10;;;;;;5057508;28;19904;-89
2024/01/21 11:16:26;;;;;;;;;;;3.40;54.70;;;;;;5056454;28;19911;-86
2024/01/21 11:19:11;;;;;;;;;;;3.40;54.00;;;;;;5056471;28;20379;-87
2024/01/21 11:21:40;;;;;;;;;;;3.30;55.80;;;;;;5057005;28;19905;-87
2024/01/21 11:24:08;;;;;;;;;;;3.50;54.20;;;;;;5058105;28;19909;-87
2024/01/21 11:26:38;;;;;;;;;;;3.50;54.70;;;;;;5056841;28;19905;-88
2024/01/21 11:29:20;;;;;;;;;;;3.40;56.40;;;;;;5056549;28;19911;-88
2024/01/21 11:31:47;;;;;;;;;;;3.40;54.90;;;;;;5057287;28;19911;-87
2024/01/21 11:34:13;;;;;;;;;;;3.40;54.50;;;;;;5056870;28;20361;-87
2024/01/21 11:36:39;;;;;;;;;;;3.30;57.30;;;;;;5057320;28;19924;-87
2024/01/21 11:39:06;;;;;;;;;;;3.40;55.80;;;;;;5056919;28;19935;-87
2024/01/21 11:41:41;;;;;;;;;;;3.30;57.50;;;;;;5057078;28;19905;-87
2024/01/21 11:44:27;;;;;;;;;;;3.30;56.80;;;;;;5056963;28;19948;-87
2024/01/21 11:46:53;;;;;;;;;;;3.40;57.20;;;;;;5055151;28;19947;-86
2024/01/21 11:49:19;;;;;;;;;;;3.30;57.90;;;;;;5056069;28;19916;-89
2024/01/21 11:51:44;;;;;;;;;;;3.40;57.10;;;;;;5055261;28;19905;-86
2024/01/21 11:54:10;;;;;;;;;;;3.40;57.50;;;;;;5056631;28;19911;-86
2024/01/21 11:56:36;;;;;;;;;;;3.50;56.70;;;;;;5055317;28;19990;-86
2024/01/21 11:59:03;;;;;;;;;;;3.50;57.10;;;;;;5055148;28;19912;-89
2024/01/21 12:01:30;;;;;;;;;;;3.40;57.30;;;;;;5055430;28;19909;-87
2024/01/21 12:03:55;;;;;;;;;;;3.40;58.20;;;;;;5056476;28;19909;-87
2024/01/21 12:06:21;;;;;;;;;;;3.60;57.50;;;;;;5054936;28;19905;-86
2024/01/21 12:08:47;;;;;;;;;;;3.60;57.10;;;;;;5055017;28;19905;-86
2024/01/21 12:11:13;;;;;;;;;;;3.60;57.70;;;;;;5055175;28;19911;-87
2024/01/21 12:13:43;;;;;;;;;;;3.60;58.70;;;;;;5054939;28;19951;-87
2024/01/21 12:16:11;;;;;;;;;;;3.60;57.20;;;;;;5054896;28;20136;-88
2024/01/21 12:18:41;;;;;;;;;;;3.60;58.70;;;;;;5055325;28;19905;-87
2024/01/21 12:21:06;;;;;;;;;;;3.60;59.20;;;;;;5054870;28;19912;-87
2024/01/21 12:23:32;;;;;;;;;;;3.60;59.10;;;;;;5054778;28;20352;-88
2024/01/21 12:25:59;;;;;;;;;;;3.60;59.80;;;;;;5055474;28;19905;-87
2024/01/21 12:28:24;;;;;;;;;;;3.50;61.10;;;;;;5056439;28;19912;-86
2024/01/21 12:30:50;;;;;;;;;;;3.60;59.30;;;;;;5055181;28;19904;-88
2024/01/21 12:33:15;;;;;;;;;;;3.50;60.80;;;;;;5055211;28;19912;-86
2024/01/21 12:35:42;;;;;;;;;;;3.50;61.20;;;;;;5054294;28;20361;-86
2024/01/21 12:38:07;;;;;;;;;;;3.40;62.50;;;;;;5054469;28;20339;-86
2024/01/21 12:40:33;;;;;;;;;;;3.50;62.70;;;;;;5054587;28;19947;-87
2024/01/21 12:42:58;;;;;;;;;;;3.60;62.10;;;;;;5055565;28;19985;-86
2024/01/21 12:45:24;;;;;;;;;;;3.60;61.90;;;;;;5054276;28;19909;-86
2024/01/21 12:47:50;;;;;;;;;;;3.60;62.70;;;;;;5054525;28;19905;-88
2024/01/21 12:50:15;;;;;;;;;;;3.70;62.60;;;;;;5054417;28;19908;-87
2024/01/21 12:52:40;;;;;;;;;;;3.70;62.10;;;;;;5054654;28;19905;-86
2024/01/21 12:55:06;;;;;;;;;;;3.80;61.80;;;;;;5054257;28;19957;-86
2024/01/21 12:57:32;;;;;;;;;;;3.80;62.80;;;;;;5054094;28;19959;-86
2024/01/21 12:59:57;;;;;;;;;;;3.80;63.80;;;;;;5054318;28;19958;-86
2024/01/21 13:02:26;;;;;;;;;;;3.70;64.60;;;;;;5054034;28;19905;-89
2024/01/21 13:04:51;;;;;;;;;;;3.70;64.70;;;;;;5054288;28;20284;-86
2024/01/21 13:07:17;;;;;;;;;;;3.70;64.70;;;;;;5054264;28;19904;-86